sensor_id;sensor_type;location;lat;lon;timestamp;P1;durP1;ratioP1;P2;durP2;ratioP2
735;SDS011;352;48.626;9.238;2022-10-04T00:01:45;5.20;;;4.03;;
735;SDS011;352;48.626;9.238;2022-10-04T00:04:17;4.90;;;4.32;;
735;SDS011;352;48.626;9.238;2022-10-04T00:06:50;5.50;;;4.00;;
735;SDS011;352;48.626;9.238;2022-10-04T00:09:22;8.77;;;4.30;;
735;SDS011;352;48.626;9.238;2022-10-04T00:11:53;4.43;;;3.38;;
735;SDS011;352;48.626;9.238;2022-10-04T00:14:23;4.35;;;3.95;;
735;SDS011;352;48.626;9.238;2022-10-04T00:16:54;4.10;;;3.80;;
735;SDS011;352;48.626;9.238;2022-10-04T00:19:23;4.05;;;3.63;;
735;SDS011;352;48.626;9.238;2022-10-04T00:22:11;5.38;;;3.97;;
735;SDS011;352;48.626;9.238;2022-10-04T00:30:40;5.20;;;3.47;;
735;SDS011;352;48.626;9.238;2022-10-04T00:33:08;3.97;;;3.60;;
735;SDS011;352;48.626;9.238;2022-10-04T00:35:45;4.70;;;4.30;;
735;SDS011;352;48.626;9.238;2022-10-04T00:38:15;9.57;;;4.55;;
735;SDS011;352;48.626;9.238;2022-10-04T00:40:50;9.98;;;4.40;;
735;SDS011;352;48.626;9.238;2022-10-04T00:43:21;7.45;;;5.00;;
735;SDS011;352;48.626;9.238;2022-10-04T00:45:51;5.20;;;3.83;;
735;SDS011;352;48.626;9.238;2022-10-04T00:48:26;4.40;;;4.05;;
735;SDS011;352;48.626;9.238;2022-10-04T00:51:02;4.43;;;4.03;;
735;SDS011;352;48.626;9.238;2022-10-04T00:53:37;8.20;;;3.40;;
735;SDS011;352;48.626;9.238;2022-10-04T00:56:08;4.25;;;3.88;;
735;SDS011;352;48.626;9.238;2022-10-04T00:58:44;7.70;;;4.18;;
735;SDS011;352;48.626;9.238;2022-10-04T01:01:28;3.90;;;3.60;;
735;SDS011;352;48.626;9.238;2022-10-04T01:04:01;4.70;;;4.30;;
735;SDS011;352;48.626;9.238;2022-10-04T01:06:31;4.53;;;4.03;;
735;SDS011;352;48.626;9.238;2022-10-04T01:09:03;3.90;;;3.53;;
735;SDS011;352;48.626;9.238;2022-10-04T01:11:34;4.25;;;3.90;;
735;SDS011;352;48.626;9.238;2022-10-04T01:14:03;5.07;;;4.05;;
735;SDS011;352;48.626;9.238;2022-10-04T01:16:34;4.00;;;3.58;;
735;SDS011;352;48.626;9.238;2022-10-04T01:21:57;5.60;;;4.40;;
735;SDS011;352;48.626;9.238;2022-10-04T01:24:36;6.03;;;3.78;;
735;SDS011;352;48.626;9.238;2022-10-04T01:27:04;9.60;;;4.85;;
735;SDS011;352;48.626;9.238;2022-10-04T01:30:02;9.10;;;4.45;;
735;SDS011;352;48.626;9.238;2022-10-04T01:32:31;6.95;;;4.55;;
735;SDS011;352;48.626;9.238;2022-10-04T01:34:58;3.90;;;3.50;;
735;SDS011;352;48.626;9.238;2022-10-04T01:37:25;5.90;;;4.15;;
735;SDS011;352;48.626;9.238;2022-10-04T01:39:53;5.60;;;4.63;;
735;SDS011;352;48.626;9.238;2022-10-04T01:42:22;4.80;;;4.30;;
735;SDS011;352;48.626;9.238;2022-10-04T01:44:53;3.92;;;3.63;;
735;SDS011;352;48.626;9.238;2022-10-04T01:47:25;7.00;;;3.33;;
735;SDS011;352;48.626;9.238;2022-10-04T01:49:56;4.35;;;3.95;;
735;SDS011;352;48.626;9.238;2022-10-04T01:52:28;4.18;;;3.70;;
735;SDS011;352;48.626;9.238;2022-10-04T01:55:01;4.45;;;4.05;;
735;SDS011;352;48.626;9.238;2022-10-04T01:57:32;4.90;;;4.50;;
735;SDS011;352;48.626;9.238;2022-10-04T02:00:03;8.95;;;4.25;;
735;SDS011;352;48.626;9.238;2022-10-04T02:02:33;4.03;;;3.45;;
735;SDS011;352;48.626;9.238;2022-10-04T02:05:06;8.60;;;4.38;;
735;SDS011;352;48.626;9.238;2022-10-04T02:07:36;4.18;;;3.40;;
735;SDS011;352;48.626;9.238;2022-10-04T02:10:07;6.75;;;4.45;;
735;SDS011;352;48.626;9.238;2022-10-04T02:12:37;4.20;;;3.78;;
735;SDS011;352;48.626;9.238;2022-10-04T02:15:11;4.25;;;3.85;;
735;SDS011;352;48.626;9.238;2022-10-04T02:17:39;6.63;;;4.60;;
735;SDS011;352;48.626;9.238;2022-10-04T02:20:09;5.50;;;3.95;;
735;SDS011;352;48.626;9.238;2022-10-04T02:22:39;6.80;;;4.65;;
735;SDS011;352;48.626;9.238;2022-10-04T02:25:08;5.55;;;4.43;;
735;SDS011;352;48.626;9.238;2022-10-04T02:27:37;5.28;;;3.60;;
735;SDS011;352;48.626;9.238;2022-10-04T02:30:05;4.05;;;3.65;;
735;SDS011;352;48.626;9.238;2022-10-04T02:32:34;5.25;;;4.25;;
735;SDS011;352;48.626;9.238;2022-10-04T02:35:19;4.32;;;3.92;;
735;SDS011;352;48.626;9.238;2022-10-04T02:37:47;6.75;;;3.67;;
735;SDS011;352;48.626;9.238;2022-10-04T02:40:22;18.65;;;5.63;;
735;SDS011;352;48.626;9.238;2022-10-04T02:42:56;5.05;;;4.00;;
735;SDS011;352;48.626;9.238;2022-10-04T02:45:26;11.32;;;4.95;;
735;SDS011;352;48.626;9.238;2022-10-04T02:47:59;6.50;;;4.38;;
735;SDS011;352;48.626;9.238;2022-10-04T02:50:32;10.35;;;4.95;;
735;SDS011;352;48.626;9.238;2022-10-04T02:53:07;7.75;;;4.38;;
735;SDS011;352;48.626;9.238;2022-10-04T02:55:42;5.07;;;3.20;;
735;SDS011;352;48.626;9.238;2022-10-04T02:58:12;5.35;;;4.35;;
735;SDS011;352;48.626;9.238;2022-10-04T03:00:46;6.60;;;4.18;;
735;SDS011;352;48.626;9.238;2022-10-04T03:03:15;13.27;;;4.43;;
735;SDS011;352;48.626;9.238;2022-10-04T03:05:52;8.00;;;4.53;;
735;SDS011;352;48.626;9.238;2022-10-04T03:08:24;5.20;;;4.30;;
735;SDS011;352;48.626;9.238;2022-10-04T03:10:53;5.03;;;4.43;;
735;SDS011;352;48.626;9.238;2022-10-04T03:13:21;6.18;;;4.65;;
735;SDS011;352;48.626;9.238;2022-10-04T03:15:48;7.82;;;4.32;;
735;SDS011;352;48.626;9.238;2022-10-04T03:18:15;5.53;;;4.90;;
735;SDS011;352;48.626;9.238;2022-10-04T03:20:44;8.07;;;4.40;;
735;SDS011;352;48.626;9.238;2022-10-04T03:23:12;5.47;;;3.85;;
735;SDS011;352;48.626;9.238;2022-10-04T03:25:44;16.92;;;5.30;;
735;SDS011;352;48.626;9.238;2022-10-04T03:28:17;9.90;;;4.00;;
735;SDS011;352;48.626;9.238;2022-10-04T03:30:44;16.25;;;4.68;;
735;SDS011;352;48.626;9.238;2022-10-04T03:33:16;3.75;;;3.42;;
735;SDS011;352;48.626;9.238;2022-10-04T03:35:48;11.55;;;4.50;;
735;SDS011;352;48.626;9.238;2022-10-04T03:38:17;13.52;;;4.63;;
735;SDS011;352;48.626;9.238;2022-10-04T03:40:47;8.27;;;4.60;;
735;SDS011;352;48.626;9.238;2022-10-04T03:43:18;8.10;;;4.00;;
735;SDS011;352;48.626;9.238;2022-10-04T03:45:48;16.35;;;4.80;;
735;SDS011;352;48.626;9.238;2022-10-04T03:48:17;4.55;;;4.15;;
735;SDS011;352;48.626;9.238;2022-10-04T03:50:52;10.07;;;4.78;;
735;SDS011;352;48.626;9.238;2022-10-04T03:53:23;5.60;;;4.65;;
735;SDS011;352;48.626;9.238;2022-10-04T03:55:54;8.07;;;4.82;;
735;SDS011;352;48.626;9.238;2022-10-04T03:58:23;4.82;;;4.32;;
735;SDS011;352;48.626;9.238;2022-10-04T04:00:59;8.40;;;4.13;;
735;SDS011;352;48.626;9.238;2022-10-04T04:03:31;4.72;;;4.25;;
735;SDS011;352;48.626;9.238;2022-10-04T04:06:08;20.60;;;5.25;;
735;SDS011;352;48.626;9.238;2022-10-04T04:08:41;9.88;;;4.47;;
735;SDS011;352;48.626;9.238;2022-10-04T04:11:20;8.93;;;4.10;;
735;SDS011;352;48.626;9.238;2022-10-04T04:13:52;4.57;;;4.18;;
735;SDS011;352;48.626;9.238;2022-10-04T04:16:24;4.50;;;4.10;;
735;SDS011;352;48.626;9.238;2022-10-04T04:18:52;13.98;;;4.30;;
735;SDS011;352;48.626;9.238;2022-10-04T04:21:23;10.27;;;4.22;;
735;SDS011;352;48.626;9.238;2022-10-04T04:23:52;4.55;;;3.97;;
735;SDS011;352;48.626;9.238;2022-10-04T04:26:23;5.35;;;3.90;;
735;SDS011;352;48.626;9.238;2022-10-04T04:28:57;16.48;;;4.88;;
735;SDS011;352;48.626;9.238;2022-10-04T04:31:32;5.35;;;4.55;;
735;SDS011;352;48.626;9.238;2022-10-04T04:34:02;5.80;;;4.35;;
735;SDS011;352;48.626;9.238;2022-10-04T04:36:31;8.82;;;4.70;;
735;SDS011;352;48.626;9.238;2022-10-04T04:39:07;13.35;;;5.63;;
735;SDS011;352;48.626;9.238;2022-10-04T04:42:12;8.20;;;5.22;;
735;SDS011;352;48.626;9.238;2022-10-04T04:44:46;5.05;;;4.55;;
735;SDS011;352;48.626;9.238;2022-10-04T04:47:25;5.15;;;4.65;;
735;SDS011;352;48.626;9.238;2022-10-04T04:49:54;5.60;;;4.78;;
735;SDS011;352;48.626;9.238;2022-10-04T04:52:24;5.10;;;4.63;;
735;SDS011;352;48.626;9.238;2022-10-04T04:54:54;4.95;;;4.47;;
735;SDS011;352;48.626;9.238;2022-10-04T04:57:22;23.75;;;6.15;;
735;SDS011;352;48.626;9.238;2022-10-04T04:59:51;6.72;;;4.57;;
735;SDS011;352;48.626;9.238;2022-10-04T05:02:26;4.32;;;3.95;;
735;SDS011;352;48.626;9.238;2022-10-04T05:07:45;4.00;;;3.70;;
735;SDS011;352;48.626;9.238;2022-10-04T05:10:28;6.35;;;4.75;;
735;SDS011;352;48.626;9.238;2022-10-04T05:12:56;4.65;;;3.90;;
735;SDS011;352;48.626;9.238;2022-10-04T05:15:26;7.90;;;4.75;;
735;SDS011;352;48.626;9.238;2022-10-04T05:17:57;22.23;;;5.60;;
735;SDS011;352;48.626;9.238;2022-10-04T05:20:24;13.45;;;4.90;;
735;SDS011;352;48.626;9.238;2022-10-04T05:22:52;4.90;;;4.10;;
735;SDS011;352;48.626;9.238;2022-10-04T05:25:22;4.25;;;3.85;;
735;SDS011;352;48.626;9.238;2022-10-04T05:27:53;5.93;;;5.43;;
735;SDS011;352;48.626;9.238;2022-10-04T05:30:25;6.03;;;5.53;;
735;SDS011;352;48.626;9.238;2022-10-04T05:33:08;5.20;;;4.80;;
735;SDS011;352;48.626;9.238;2022-10-04T05:35:41;5.40;;;4.90;;
735;SDS011;352;48.626;9.238;2022-10-04T05:38:18;5.30;;;4.90;;
735;SDS011;352;48.626;9.238;2022-10-04T05:40:54;5.60;;;4.10;;
735;SDS011;352;48.626;9.238;2022-10-04T05:43:31;5.30;;;4.80;;
735;SDS011;352;48.626;9.238;2022-10-04T05:46:19;5.07;;;4.60;;
735;SDS011;352;48.626;9.238;2022-10-04T05:48:50;6.03;;;5.50;;
735;SDS011;352;48.626;9.238;2022-10-04T05:51:22;5.35;;;4.85;;
735;SDS011;352;48.626;9.238;2022-10-04T06:48:03;5.03;;;4.55;;
735;SDS011;352;48.626;9.238;2022-10-04T06:50:43;3.97;;;3.67;;
735;SDS011;352;48.626;9.238;2022-10-04T06:53:18;5.53;;;5.05;;
735;SDS011;352;48.626;9.238;2022-10-04T06:55:59;7.57;;;6.20;;
735;SDS011;352;48.626;9.238;2022-10-04T06:58:44;6.13;;;4.63;;
735;SDS011;352;48.626;9.238;2022-10-04T07:01:35;5.43;;;4.82;;
735;SDS011;352;48.626;9.238;2022-10-04T07:04:14;12.00;;;6.15;;
735;SDS011;352;48.626;9.238;2022-10-04T07:06:50;5.22;;;4.72;;
735;SDS011;352;48.626;9.238;2022-10-04T07:09:42;4.35;;;4.05;;
735;SDS011;352;48.626;9.238;2022-10-04T07:12:11;5.45;;;4.75;;
735;SDS011;352;48.626;9.238;2022-10-04T07:14:42;4.80;;;4.40;;
735;SDS011;352;48.626;9.238;2022-10-04T07:17:12;4.60;;;4.20;;
735;SDS011;352;48.626;9.238;2022-10-04T07:19:48;6.45;;;5.85;;
735;SDS011;352;48.626;9.238;2022-10-04T07:22:16;6.77;;;4.80;;
735;SDS011;352;48.626;9.238;2022-10-04T07:24:55;6.25;;;5.10;;
735;SDS011;352;48.626;9.238;2022-10-04T07:27:29;5.40;;;4.90;;
735;SDS011;352;48.626;9.238;2022-10-04T07:30:03;5.50;;;5.00;;
735;SDS011;352;48.626;9.238;2022-10-04T07:32:33;5.75;;;5.25;;
735;SDS011;352;48.626;9.238;2022-10-04T07:35:04;6.83;;;5.50;;
735;SDS011;352;48.626;9.238;2022-10-04T07:41:04;9.57;;;7.90;;
735;SDS011;352;48.626;9.238;2022-10-04T07:43:38;17.70;;;14.77;;
735;SDS011;352;48.626;9.238;2022-10-04T07:46:13;11.33;;;8.27;;
735;SDS011;352;48.626;9.238;2022-10-04T07:48:45;10.33;;;7.00;;
735;SDS011;352;48.626;9.238;2022-10-04T07:51:17;6.87;;;5.30;;
735;SDS011;352;48.626;9.238;2022-10-04T07:53:47;5.05;;;4.60;;
735;SDS011;352;48.626;9.238;2022-10-04T07:56:20;5.57;;;5.07;;
735;SDS011;352;48.626;9.238;2022-10-04T07:58:53;5.57;;;5.00;;
735;SDS011;352;48.626;9.238;2022-10-04T08:01:32;5.73;;;4.63;;
735;SDS011;352;48.626;9.238;2022-10-04T08:04:10;4.93;;;4.53;;
735;SDS011;352;48.626;9.238;2022-10-04T08:06:56;5.73;;;5.17;;
735;SDS011;352;48.626;9.238;2022-10-04T08:09:31;6.10;;;5.00;;
735;SDS011;352;48.626;9.238;2022-10-04T08:12:10;6.20;;;5.70;;
735;SDS011;352;48.626;9.238;2022-10-04T08:14:46;6.50;;;5.10;;
735;SDS011;352;48.626;9.238;2022-10-04T08:17:25;6.47;;;5.43;;
735;SDS011;352;48.626;9.238;2022-10-04T08:20:05;6.07;;;5.50;;
735;SDS011;352;48.626;9.238;2022-10-04T08:22:49;4.73;;;4.40;;
735;SDS011;352;48.626;9.238;2022-10-04T08:25:26;5.87;;;5.40;;
735;SDS011;352;48.626;9.238;2022-10-04T08:28:02;6.23;;;5.73;;
735;SDS011;352;48.626;9.238;2022-10-04T08:31:02;6.63;;;5.97;;
735;SDS011;352;48.626;9.238;2022-10-04T08:33:44;5.93;;;5.40;;
735;SDS011;352;48.626;9.238;2022-10-04T08:36:28;6.27;;;5.70;;
735;SDS011;352;48.626;9.238;2022-10-04T08:39:14;7.50;;;6.10;;
735;SDS011;352;48.626;9.238;2022-10-04T08:42:05;6.40;;;5.77;;
735;SDS011;352;48.626;9.238;2022-10-04T08:44:50;7.03;;;6.33;;
735;SDS011;352;48.626;9.238;2022-10-04T08:50:33;7.30;;;6.60;;
735;SDS011;352;48.626;9.238;2022-10-04T08:56:26;8.30;;;6.40;;
735;SDS011;352;48.626;9.238;2022-10-04T09:05:30;6.67;;;6.07;;
735;SDS011;352;48.626;9.238;2022-10-04T09:08:30;7.40;;;6.70;;
735;SDS011;352;48.626;9.238;2022-10-04T09:11:20;6.67;;;6.07;;
735;SDS011;352;48.626;9.238;2022-10-04T09:17:01;7.90;;;6.60;;
735;SDS011;352;48.626;9.238;2022-10-04T09:19:46;6.10;;;5.63;;
735;SDS011;352;48.626;9.238;2022-10-04T09:22:23;6.43;;;5.80;;
735;SDS011;352;48.626;9.238;2022-10-04T09:25:16;6.97;;;6.37;;
735;SDS011;352;48.626;9.238;2022-10-04T09:27:56;6.53;;;6.03;;
735;SDS011;352;48.626;9.238;2022-10-04T09:30:41;6.67;;;5.50;;
735;SDS011;352;48.626;9.238;2022-10-04T09:33:41;7.00;;;6.30;;
735;SDS011;352;48.626;9.238;2022-10-04T09:36:26;6.67;;;5.97;;
735;SDS011;352;48.626;9.238;2022-10-04T09:45:22;5.27;;;4.77;;
735;SDS011;352;48.626;9.238;2022-10-04T09:48:14;5.77;;;5.23;;
735;SDS011;352;48.626;9.238;2022-10-04T09:51:08;5.87;;;5.33;;
735;SDS011;352;48.626;9.238;2022-10-04T09:53:56;5.73;;;5.30;;
735;SDS011;352;48.626;9.238;2022-10-04T09:56:40;5.93;;;5.40;;
735;SDS011;352;48.626;9.238;2022-10-04T10:02:26;6.00;;;5.30;;
735;SDS011;352;48.626;9.238;2022-10-04T10:05:35;6.60;;;5.90;;
735;SDS011;352;48.626;9.238;2022-10-04T10:08:14;6.10;;;5.60;;
735;SDS011;352;48.626;9.238;2022-10-04T10:10:51;6.10;;;5.33;;
735;SDS011;352;48.626;9.238;2022-10-04T10:13:56;5.60;;;5.10;;
735;SDS011;352;48.626;9.238;2022-10-04T10:16:51;6.67;;;5.03;;
735;SDS011;352;48.626;9.238;2022-10-04T10:22:46;6.23;;;5.63;;
735;SDS011;352;48.626;9.238;2022-10-04T10:28:08;5.87;;;5.37;;
735;SDS011;352;48.626;9.238;2022-10-04T10:31:41;5.43;;;5.03;;
735;SDS011;352;48.626;9.238;2022-10-04T10:41:25;6.30;;;5.17;;
735;SDS011;352;48.626;9.238;2022-10-04T10:45:00;5.23;;;4.73;;
735;SDS011;352;48.626;9.238;2022-10-04T10:47:51;5.63;;;5.20;;
735;SDS011;352;48.626;9.238;2022-10-04T10:50:52;5.50;;;5.00;;
735;SDS011;352;48.626;9.238;2022-10-04T10:57:03;5.77;;;5.10;;
735;SDS011;352;48.626;9.238;2022-10-04T11:00:10;5.33;;;4.37;;
735;SDS011;352;48.626;9.238;2022-10-04T11:06:06;5.20;;;4.30;;
735;SDS011;352;48.626;9.238;2022-10-04T11:15:31;5.60;;;5.10;;
735;SDS011;352;48.626;9.238;2022-10-04T11:18:14;11.50;;;9.80;;
735;SDS011;352;48.626;9.238;2022-10-04T11:21:22;7.23;;;5.80;;
735;SDS011;352;48.626;9.238;2022-10-04T11:24:32;4.90;;;3.73;;
735;SDS011;352;48.626;9.238;2022-10-04T11:27:21;7.50;;;4.43;;
735;SDS011;352;48.626;9.238;2022-10-04T11:39:11;3.80;;;3.50;;
735;SDS011;352;48.626;9.238;2022-10-04T11:41:58;7.27;;;4.00;;
735;SDS011;352;48.626;9.238;2022-10-04T11:44:38;4.20;;;3.80;;
735;SDS011;352;48.626;9.238;2022-10-04T11:47:34;4.00;;;3.67;;
735;SDS011;352;48.626;9.238;2022-10-04T11:50:24;6.63;;;4.33;;
735;SDS011;352;48.626;9.238;2022-10-04T11:53:07;4.40;;;4.00;;
735;SDS011;352;48.626;9.238;2022-10-04T11:56:00;5.37;;;4.30;;
735;SDS011;352;48.626;9.238;2022-10-04T11:58:51;3.87;;;3.57;;
735;SDS011;352;48.626;9.238;2022-10-04T12:04:39;8.23;;;4.20;;
735;SDS011;352;48.626;9.238;2022-10-04T12:07:36;4.43;;;4.10;;
735;SDS011;352;48.626;9.238;2022-10-04T12:10:18;3.83;;;3.53;;
735;SDS011;352;48.626;9.238;2022-10-04T12:15:55;4.03;;;3.20;;
735;SDS011;352;48.626;9.238;2022-10-04T12:21:35;3.90;;;3.17;;
735;SDS011;352;48.626;9.238;2022-10-04T12:24:16;4.70;;;4.30;;
735;SDS011;352;48.626;9.238;2022-10-04T12:27:00;5.57;;;3.70;;
735;SDS011;352;48.626;9.238;2022-10-04T12:32:31;4.10;;;3.70;;
735;SDS011;352;48.626;9.238;2022-10-04T12:35:04;3.87;;;3.57;;
735;SDS011;352;48.626;9.238;2022-10-04T12:37:41;3.60;;;3.30;;
735;SDS011;352;48.626;9.238;2022-10-04T12:40:23;3.67;;;3.43;;
735;SDS011;352;48.626;9.238;2022-10-04T12:42:56;4.07;;;3.67;;
735;SDS011;352;48.626;9.238;2022-10-04T12:48:27;9.03;;;4.23;;
735;SDS011;352;48.626;9.238;2022-10-04T12:51:10;3.70;;;3.40;;
735;SDS011;352;48.626;9.238;2022-10-04T12:53:57;3.20;;;3.00;;
735;SDS011;352;48.626;9.238;2022-10-04T12:56:41;4.00;;;3.43;;
735;SDS011;352;48.626;9.238;2022-10-04T12:59:16;4.90;;;3.20;;
735;SDS011;352;48.626;9.238;2022-10-04T13:01:54;4.93;;;3.23;;
735;SDS011;352;48.626;9.238;2022-10-04T13:04:32;4.07;;;3.63;;
735;SDS011;352;48.626;9.238;2022-10-04T13:09:59;3.80;;;3.47;;
735;SDS011;352;48.626;9.238;2022-10-04T13:12:44;3.50;;;3.20;;
735;SDS011;352;48.626;9.238;2022-10-04T13:15:31;3.47;;;3.17;;
735;SDS011;352;48.626;9.238;2022-10-04T13:18:06;4.47;;;3.33;;
735;SDS011;352;48.626;9.238;2022-10-04T13:20:48;4.70;;;3.27;;
735;SDS011;352;48.626;9.238;2022-10-04T13:23:27;4.30;;;2.93;;
735;SDS011;352;48.626;9.238;2022-10-04T13:26:10;3.27;;;2.97;;
735;SDS011;352;48.626;9.238;2022-10-04T13:28:57;4.43;;;3.30;;
735;SDS011;352;48.626;9.238;2022-10-04T13:31:30;3.60;;;3.30;;
735;SDS011;352;48.626;9.238;2022-10-04T13:34:04;3.17;;;2.97;;
735;SDS011;352;48.626;9.238;2022-10-04T13:36:46;3.77;;;3.47;;
735;SDS011;352;48.626;9.238;2022-10-04T13:39:25;3.83;;;3.00;;
735;SDS011;352;48.626;9.238;2022-10-04T13:42:19;4.63;;;3.37;;
735;SDS011;352;48.626;9.238;2022-10-04T13:45:05;4.10;;;3.43;;
735;SDS011;352;48.626;9.238;2022-10-04T13:48:10;3.30;;;3.00;;
735;SDS011;352;48.626;9.238;2022-10-04T13:51:00;3.23;;;2.93;;
735;SDS011;352;48.626;9.238;2022-10-04T13:53:35;4.00;;;2.83;;
735;SDS011;352;48.626;9.238;2022-10-04T13:56:36;3.43;;;3.13;;
735;SDS011;352;48.626;9.238;2022-10-04T13:59:20;3.77;;;3.27;;
735;SDS011;352;48.626;9.238;2022-10-04T14:02:16;4.30;;;2.63;;
735;SDS011;352;48.626;9.238;2022-10-04T14:05:25;4.33;;;3.00;;
735;SDS011;352;48.626;9.238;2022-10-04T14:08:39;3.40;;;3.00;;
735;SDS011;352;48.626;9.238;2022-10-04T14:14:42;4.37;;;3.10;;
735;SDS011;352;48.626;9.238;2022-10-04T14:33:00;3.40;;;3.00;;
735;SDS011;352;48.626;9.238;2022-10-04T14:35:42;3.83;;;3.10;;
735;SDS011;352;48.626;9.238;2022-10-04T14:44:24;3.73;;;2.90;;
735;SDS011;352;48.626;9.238;2022-10-04T14:50:23;5.60;;;2.90;;
735;SDS011;352;48.626;9.238;2022-10-04T14:52:58;3.57;;;3.23;;
735;SDS011;352;48.626;9.238;2022-10-04T14:58:33;3.40;;;3.07;;
735;SDS011;352;48.626;9.238;2022-10-04T15:01:13;5.07;;;3.40;;
735;SDS011;352;48.626;9.238;2022-10-04T15:03:47;4.70;;;3.67;;
735;SDS011;352;48.626;9.238;2022-10-04T15:06:50;3.73;;;3.53;;
735;SDS011;352;48.626;9.238;2022-10-04T15:09:23;6.57;;;3.53;;
735;SDS011;352;48.626;9.238;2022-10-04T15:12:16;3.03;;;2.83;;
735;SDS011;352;48.626;9.238;2022-10-04T15:15:07;4.10;;;3.60;;
735;SDS011;352;48.626;9.238;2022-10-04T15:17:54;3.33;;;2.83;;
735;SDS011;352;48.626;9.238;2022-10-04T15:20:29;4.00;;;3.60;;
735;SDS011;352;48.626;9.238;2022-10-04T15:23:07;4.33;;;3.67;;
735;SDS011;352;48.626;9.238;2022-10-04T15:25:41;4.83;;;3.40;;
735;SDS011;352;48.626;9.238;2022-10-04T15:28:27;4.17;;;3.63;;
735;SDS011;352;48.626;9.238;2022-10-04T15:31:08;4.83;;;3.50;;
735;SDS011;352;48.626;9.238;2022-10-04T15:33:42;6.27;;;3.90;;
735;SDS011;352;48.626;9.238;2022-10-04T15:36:26;6.13;;;3.27;;
735;SDS011;352;48.626;9.238;2022-10-04T15:39:04;4.70;;;3.43;;
735;SDS011;352;48.626;9.238;2022-10-04T15:41:48;3.47;;;3.17;;
735;SDS011;352;48.626;9.238;2022-10-04T15:44:32;3.50;;;3.20;;
735;SDS011;352;48.626;9.238;2022-10-04T15:47:21;5.23;;;3.40;;
735;SDS011;352;48.626;9.238;2022-10-04T15:49:53;3.50;;;3.20;;
735;SDS011;352;48.626;9.238;2022-10-04T15:52:43;4.73;;;3.30;;
735;SDS011;352;48.626;9.238;2022-10-04T15:55:24;3.27;;;2.97;;
735;SDS011;352;48.626;9.238;2022-10-04T16:01:36;4.00;;;3.10;;
735;SDS011;352;48.626;9.238;2022-10-04T16:07:18;3.40;;;3.10;;
735;SDS011;352;48.626;9.238;2022-10-04T16:10:17;5.20;;;3.43;;
735;SDS011;352;48.626;9.238;2022-10-04T16:13:04;3.87;;;2.40;;
735;SDS011;352;48.626;9.238;2022-10-04T16:18:53;4.13;;;3.50;;
735;SDS011;352;48.626;9.238;2022-10-04T16:21:30;5.13;;;3.40;;
735;SDS011;352;48.626;9.238;2022-10-04T16:27:06;4.37;;;3.50;;
735;SDS011;352;48.626;9.238;2022-10-04T16:29:54;3.43;;;3.13;;
735;SDS011;352;48.626;9.238;2022-10-04T16:32:28;4.90;;;3.53;;
735;SDS011;352;48.626;9.238;2022-10-04T16:35:04;5.03;;;4.30;;
735;SDS011;352;48.626;9.238;2022-10-04T16:37:40;6.80;;;4.20;;
735;SDS011;352;48.626;9.238;2022-10-04T16:40:23;4.70;;;4.27;;
735;SDS011;352;48.626;9.238;2022-10-04T16:42:58;6.83;;;3.80;;
735;SDS011;352;48.626;9.238;2022-10-04T16:45:34;7.03;;;4.53;;
735;SDS011;352;48.626;9.238;2022-10-04T16:48:12;5.37;;;3.73;;
735;SDS011;352;48.626;9.238;2022-10-04T16:50:53;5.13;;;4.40;;
735;SDS011;352;48.626;9.238;2022-10-04T16:53:31;6.50;;;4.20;;
735;SDS011;352;48.626;9.238;2022-10-04T16:56:12;5.00;;;3.57;;
735;SDS011;352;48.626;9.238;2022-10-04T16:58:41;7.00;;;4.27;;
735;SDS011;352;48.626;9.238;2022-10-04T17:04:27;7.83;;;4.23;;
735;SDS011;352;48.626;9.238;2022-10-04T17:10:28;6.23;;;5.20;;
735;SDS011;352;48.626;9.238;2022-10-04T17:13:00;6.20;;;5.20;;
735;SDS011;352;48.626;9.238;2022-10-04T17:15:46;7.13;;;5.70;;
735;SDS011;352;48.626;9.238;2022-10-04T17:18:17;6.50;;;5.77;;
735;SDS011;352;48.626;9.238;2022-10-04T17:20:58;6.63;;;5.37;;
735;SDS011;352;48.626;9.238;2022-10-04T17:23:36;4.83;;;4.43;;
735;SDS011;352;48.626;9.238;2022-10-04T17:26:23;4.73;;;4.33;;
735;SDS011;352;48.626;9.238;2022-10-04T17:29:05;6.23;;;5.63;;
735;SDS011;352;48.626;9.238;2022-10-04T17:31:47;9.00;;;8.10;;
735;SDS011;352;48.626;9.238;2022-10-04T17:34:24;9.67;;;8.40;;
735;SDS011;352;48.626;9.238;2022-10-04T17:37:01;11.67;;;10.47;;
735;SDS011;352;48.626;9.238;2022-10-04T17:39:42;7.67;;;6.87;;
735;SDS011;352;48.626;9.238;2022-10-04T17:42:14;6.17;;;5.27;;
735;SDS011;352;48.626;9.238;2022-10-04T17:44:53;4.97;;;4.50;;
735;SDS011;352;48.626;9.238;2022-10-04T17:47:37;5.00;;;4.37;;
735;SDS011;352;48.626;9.238;2022-10-04T17:50:26;4.93;;;3.70;;
735;SDS011;352;48.626;9.238;2022-10-04T17:53:16;6.27;;;4.30;;
735;SDS011;352;48.626;9.238;2022-10-04T17:56:06;6.47;;;5.50;;
735;SDS011;352;48.626;9.238;2022-10-04T17:58:40;5.07;;;4.23;;
735;SDS011;352;48.626;9.238;2022-10-04T18:01:10;5.83;;;4.63;;
735;SDS011;352;48.626;9.238;2022-10-04T18:03:40;5.83;;;5.33;;
735;SDS011;352;48.626;9.238;2022-10-04T18:06:13;6.13;;;5.33;;
735;SDS011;352;48.626;9.238;2022-10-04T18:08:45;6.40;;;5.90;;
735;SDS011;352;48.626;9.238;2022-10-04T18:11:22;9.57;;;7.30;;
735;SDS011;352;48.626;9.238;2022-10-04T18:13:57;13.03;;;8.70;;
735;SDS011;352;48.626;9.238;2022-10-04T18:16:28;8.67;;;6.83;;
735;SDS011;352;48.626;9.238;2022-10-04T18:19:00;7.30;;;6.47;;
735;SDS011;352;48.626;9.238;2022-10-04T18:21:50;6.10;;;5.50;;
735;SDS011;352;48.626;9.238;2022-10-04T18:24:19;7.53;;;5.87;;
735;SDS011;352;48.626;9.238;2022-10-04T18:26:56;9.23;;;5.57;;
735;SDS011;352;48.626;9.238;2022-10-04T18:29:35;13.50;;;12.10;;
735;SDS011;352;48.626;9.238;2022-10-04T18:32:14;16.37;;;14.83;;
735;SDS011;352;48.626;9.238;2022-10-04T18:34:56;14.63;;;12.73;;
735;SDS011;352;48.626;9.238;2022-10-04T18:37:27;10.00;;;9.00;;
735;SDS011;352;48.626;9.238;2022-10-04T18:40:01;9.13;;;8.20;;
735;SDS011;352;48.626;9.238;2022-10-04T18:42:37;10.60;;;8.90;;
735;SDS011;352;48.626;9.238;2022-10-04T18:45:16;9.50;;;7.90;;
735;SDS011;352;48.626;9.238;2022-10-04T18:47:45;14.37;;;11.40;;
735;SDS011;352;48.626;9.238;2022-10-04T18:50:15;11.73;;;10.03;;
735;SDS011;352;48.626;9.238;2022-10-04T18:52:50;11.83;;;9.40;;
735;SDS011;352;48.626;9.238;2022-10-04T18:55:25;9.23;;;8.33;;
735;SDS011;352;48.626;9.238;2022-10-04T18:58:01;12.67;;;11.30;;
735;SDS011;352;48.626;9.238;2022-10-04T19:00:56;9.83;;;8.80;;
735;SDS011;352;48.626;9.238;2022-10-04T19:03:47;12.20;;;10.10;;
735;SDS011;352;48.626;9.238;2022-10-04T19:06:29;15.63;;;10.37;;
735;SDS011;352;48.626;9.238;2022-10-04T19:08:59;11.60;;;9.43;;
735;SDS011;352;48.626;9.238;2022-10-04T19:11:37;8.83;;;7.30;;
735;SDS011;352;48.626;9.238;2022-10-04T19:14:12;9.57;;;8.60;;
735;SDS011;352;48.626;9.238;2022-10-04T19:16:47;11.10;;;10.00;;
735;SDS011;352;48.626;9.238;2022-10-04T19:19:23;8.70;;;8.00;;
735;SDS011;352;48.626;9.238;2022-10-04T19:21:58;8.20;;;6.93;;
735;SDS011;352;48.626;9.238;2022-10-04T19:24:39;6.53;;;5.93;;
735;SDS011;352;48.626;9.238;2022-10-04T19:27:19;7.20;;;6.60;;
735;SDS011;352;48.626;9.238;2022-10-04T19:29:59;8.00;;;7.20;;
735;SDS011;352;48.626;9.238;2022-10-04T19:32:33;8.47;;;7.63;;
735;SDS011;352;48.626;9.238;2022-10-04T19:35:14;8.87;;;8.10;;
735;SDS011;352;48.626;9.238;2022-10-04T19:37:51;9.80;;;8.80;;
735;SDS011;352;48.626;9.238;2022-10-04T19:40:28;10.10;;;8.23;;
735;SDS011;352;48.626;9.238;2022-10-04T19:43:05;10.00;;;9.00;;
735;SDS011;352;48.626;9.238;2022-10-04T19:45:39;11.17;;;7.27;;
735;SDS011;352;48.626;9.238;2022-10-04T19:48:13;8.67;;;7.77;;
735;SDS011;352;48.626;9.238;2022-10-04T19:50:45;8.30;;;7.50;;
735;SDS011;352;48.626;9.238;2022-10-04T19:53:16;8.50;;;7.60;;
735;SDS011;352;48.626;9.238;2022-10-04T19:55:47;8.87;;;8.00;;
735;SDS011;352;48.626;9.238;2022-10-04T19:58:29;8.63;;;7.77;;
735;SDS011;352;48.626;9.238;2022-10-04T20:01:08;8.60;;;7.70;;
735;SDS011;352;48.626;9.238;2022-10-04T20:03:35;10.00;;;7.00;;
735;SDS011;352;48.626;9.238;2022-10-04T20:06:02;7.87;;;7.07;;
735;SDS011;352;48.626;9.238;2022-10-04T20:08:51;7.77;;;7.07;;
735;SDS011;352;48.626;9.238;2022-10-04T20:11:22;8.20;;;6.87;;